createdAt,value
2022-09-09T00:00:43.464Z,1.10
2022-09-09T00:03:15.588Z,1.07
2022-09-09T00:05:42.395Z,1.00
2022-09-09T00:08:09.742Z,1.30
2022-09-09T00:10:40.559Z,1.00
2022-09-09T00:13:07.669Z,1.17
2022-09-09T00:15:57.950Z,1.20
2022-09-09T00:18:34.913Z,1.07
2022-09-09T00:21:12.074Z,1.03
2022-09-09T00:23:40.280Z,0.90
2022-09-09T00:26:21.771Z,1.20
2022-09-09T00:28:52.511Z,0.93
2022-09-09T00:31:24.699Z,1.10
2022-09-09T00:33:51.630Z,1.13
2022-09-09T00:36:19.486Z,0.90
2022-09-09T00:38:50.723Z,1.30
2022-09-09T00:41:20.043Z,0.90
2022-09-09T00:43:51.756Z,1.00
2022-09-09T00:46:24.229Z,1.10
2022-09-09T00:49:10.288Z,1.40
2022-09-09T00:51:42.701Z,1.23
2022-09-09T00:54:09.256Z,1.20
2022-09-09T00:56:43.692Z,1.30
2022-09-09T00:59:20.131Z,1.43
2022-09-09T01:01:46.709Z,1.50
2022-09-09T01:04:17.523Z,1.20
2022-09-09T01:06:47.255Z,1.70
2022-09-09T01:09:16.995Z,1.37
2022-09-09T01:11:58.565Z,1.63
2022-09-09T01:14:35.929Z,1.43
2022-09-09T01:17:10.893Z,1.60
2022-09-09T01:19:44.164Z,1.50
2022-09-09T01:22:23.369Z,1.60
2022-09-09T01:25:10.340Z,1.70
2022-09-09T01:28:04.046Z,1.90
2022-09-09T01:30:31.920Z,1.60
2022-09-09T01:33:01.366Z,1.83
2022-09-09T01:35:46.682Z,1.60
2022-09-09T01:38:14.676Z,1.63
2022-09-09T01:40:41.911Z,1.90
2022-09-09T01:43:09.023Z,1.90
2022-09-09T01:45:36.899Z,1.70
2022-09-09T01:48:04.171Z,1.97
2022-09-09T01:50:52.076Z,2.30
2022-09-09T01:53:20.216Z,1.77
2022-09-09T01:55:54.200Z,2.50
2022-09-09T01:58:35.331Z,2.43
2022-09-09T02:01:02.042Z,2.27
2022-09-09T02:03:29.741Z,1.47
2022-09-09T02:06:26.060Z,2.10
2022-09-09T02:08:57.395Z,2.23
2022-09-09T02:11:26.842Z,1.80
2022-09-09T02:14:17.380Z,2.03
2022-09-09T02:16:53.578Z,2.03
2022-09-09T02:19:32.801Z,2.00
2022-09-09T02:22:21.025Z,1.90
2022-09-09T02:24:48.206Z,1.97
2022-09-09T02:27:21.433Z,1.97
2022-09-09T02:29:48.905Z,2.13
2022-09-09T02:32:20.704Z,1.77
2022-09-09T02:34:53.446Z,2.10
2022-09-09T02:37:21.199Z,2.33
2022-09-09T02:39:52.505Z,1.90
2022-09-09T02:42:21.506Z,2.10
2022-09-09T02:44:49.428Z,1.87
2022-09-09T02:47:16.135Z,1.77
2022-09-09T02:50:03.457Z,1.70
2022-09-09T02:52:54.785Z,1.90
2022-09-09T02:55:22.613Z,2.00
2022-09-09T02:57:51.445Z,1.80
2022-09-09T03:00:23.646Z,1.77
2022-09-09T03:02:50.630Z,1.90
2022-09-09T03:05:17.187Z,2.07
2022-09-09T03:07:43.807Z,1.80
2022-09-09T03:10:11.668Z,2.00
2022-09-09T03:12:38.313Z,1.90
2022-09-09T03:15:06.258Z,2.50
2022-09-09T03:17:32.891Z,1.70
2022-09-09T03:19:59.816Z,2.10
2022-09-09T03:22:26.486Z,2.23
2022-09-09T03:24:54.559Z,2.40
2022-09-09T03:27:21.428Z,1.70
2022-09-09T03:29:48.028Z,2.43
2022-09-09T03:32:19.823Z,2.43
2022-09-09T03:34:48.502Z,2.00
2022-09-09T03:37:15.665Z,2.17
2022-09-09T03:39:42.467Z,2.13
2022-09-09T03:42:10.063Z,2.43
2022-09-09T03:44:36.744Z,2.47
2022-09-09T03:47:03.434Z,2.60
2022-09-09T03:49:30.159Z,2.27
2022-09-09T03:51:58.204Z,2.00
2022-09-09T03:54:25.297Z,2.10
2022-09-09T03:56:51.877Z,2.63
2022-09-09T03:59:18.632Z,2.60
2022-09-09T04:01:46.386Z,2.50
2022-09-09T04:04:13.386Z,2.40
2022-09-09T04:06:40.148Z,2.30
2022-09-09T04:09:07.425Z,2.13
2022-09-09T04:11:35.074Z,2.17
2022-09-09T04:14:01.895Z,2.23
2022-09-09T04:16:30.397Z,2.60
2022-09-09T04:18:57.170Z,2.00
2022-09-09T04:21:24.244Z,2.50
2022-09-09T04:23:51.092Z,2.40
2022-09-09T04:26:18.627Z,2.40
2022-09-09T04:28:46.036Z,1.90
2022-09-09T04:31:19.707Z,2.87
2022-09-09T04:33:47.632Z,2.63
2022-09-09T04:36:14.843Z,2.90
2022-09-09T04:38:41.936Z,2.90
2022-09-09T04:41:08.732Z,2.27
2022-09-09T04:43:38.304Z,2.57
2022-09-09T04:46:07.278Z,1.90
2022-09-09T04:48:34.099Z,2.30
2022-09-09T04:51:02.784Z,2.00
2022-09-09T04:53:30.915Z,1.97
2022-09-09T04:56:04.749Z,2.10
2022-09-09T04:58:34.823Z,1.80
2022-09-09T05:01:13.268Z,1.80
2022-09-09T05:03:41.798Z,1.60
2022-09-09T05:06:12.157Z,1.87
2022-09-09T05:08:39.540Z,2.03
2022-09-09T05:11:25.307Z,2.40
2022-09-09T05:13:54.323Z,1.60
2022-09-09T05:16:21.771Z,2.00
2022-09-09T05:18:48.564Z,1.97
2022-09-09T05:21:16.069Z,1.80
2022-09-09T05:23:42.769Z,1.90
2022-09-09T05:26:17.427Z,1.80
2022-09-09T05:28:46.397Z,2.10
2022-09-09T05:31:14.449Z,2.00
2022-09-09T05:33:42.024Z,1.90
2022-09-09T05:36:10.114Z,1.67
2022-09-09T05:38:37.513Z,2.20
2022-09-09T05:41:04.580Z,2.50
2022-09-09T05:43:32.693Z,2.07
2022-09-09T05:46:06.665Z,2.00
2022-09-09T05:48:35.272Z,1.53
2022-09-09T05:51:03.572Z,1.77
2022-09-09T05:53:33.277Z,1.90
2022-09-09T05:56:04.554Z,1.90
2022-09-09T05:58:33.339Z,1.53
2022-09-09T06:01:04.144Z,1.70
2022-09-09T06:03:32.799Z,1.83
2022-09-09T06:06:00.778Z,1.87
2022-09-09T06:08:28.203Z,1.40
2022-09-09T06:10:54.912Z,1.57
2022-09-09T06:13:21.480Z,1.80
2022-09-09T06:15:52.268Z,2.10
2022-09-09T06:18:19.807Z,2.23
2022-09-09T06:21:01.626Z,1.73
2022-09-09T06:23:29.268Z,1.53
2022-09-09T06:26:03.217Z,2.00
2022-09-09T06:28:30.160Z,1.77
2022-09-09T06:31:04.888Z,1.80
2022-09-09T06:33:32.300Z,1.70
2022-09-09T06:35:59.162Z,1.50
2022-09-09T06:38:26.223Z,1.70
2022-09-09T06:40:56.742Z,1.60
2022-09-09T06:43:24.207Z,1.43
2022-09-09T06:45:55.553Z,1.70
2022-09-09T06:48:22.365Z,2.00
2022-09-09T06:50:50.827Z,1.63
2022-09-09T06:53:20.135Z,1.90
2022-09-09T06:55:47.358Z,1.57
2022-09-09T06:58:14.003Z,1.90
2022-09-09T07:00:40.599Z,1.73
2022-09-09T07:03:07.605Z,1.63
2022-09-09T07:05:34.438Z,1.80
2022-09-09T07:08:00.996Z,1.70
2022-09-09T07:10:27.653Z,1.20
2022-09-09T07:12:55.854Z,1.63
2022-09-09T07:15:25.916Z,1.40
2022-09-09T07:17:54.953Z,1.73
2022-09-09T07:20:21.751Z,1.80
2022-09-09T07:22:48.376Z,1.63
2022-09-09T07:25:15.279Z,1.70
2022-09-09T07:27:42.337Z,1.63
2022-09-09T07:30:10.273Z,1.60
2022-09-09T07:32:36.948Z,1.93
2022-09-09T07:35:03.873Z,1.67
2022-09-09T07:37:30.706Z,2.27
2022-09-09T07:39:58.037Z,1.87
2022-09-09T07:42:24.673Z,2.73
2022-09-09T07:44:55.863Z,2.20
2022-09-09T07:47:22.575Z,1.90
2022-09-09T07:49:50.990Z,1.90
2022-09-09T07:52:22.811Z,2.20
2022-09-09T07:54:53.994Z,1.60
2022-09-09T07:57:21.395Z,2.00
2022-09-09T07:59:48.418Z,1.80
2022-09-09T08:02:15.536Z,1.87
2022-09-09T08:04:42.437Z,1.57
2022-09-09T08:07:09.788Z,2.10
2022-09-09T08:09:44.856Z,1.60
2022-09-09T08:12:17.938Z,1.63
2022-09-09T08:14:44.768Z,1.50
2022-09-09T08:17:11.356Z,1.53
2022-09-09T08:19:38.463Z,1.23
2022-09-09T08:22:10.683Z,1.33
2022-09-09T08:24:40.364Z,1.60
2022-09-09T08:27:07.735Z,1.87
2022-09-09T08:29:34.831Z,1.20
2022-09-09T08:32:03.026Z,1.40
2022-09-09T08:34:31.487Z,1.40
2022-09-09T08:37:01.083Z,1.37
2022-09-09T08:39:36.059Z,1.43
2022-09-09T08:42:21.375Z,1.50
2022-09-09T08:44:55.691Z,1.37
2022-09-09T08:47:28.472Z,1.40
2022-09-09T08:50:14.503Z,1.17
2022-09-09T08:52:56.252Z,1.33
2022-09-09T08:55:26.203Z,1.57
2022-09-09T08:57:55.639Z,1.30
2022-09-09T09:00:26.972Z,1.10
2022-09-09T09:02:59.793Z,1.30
2022-09-09T09:05:34.121Z,1.20
2022-09-09T09:08:04.360Z,1.10
2022-09-09T09:10:44.170Z,0.80
2022-09-09T09:13:28.006Z,1.47
2022-09-09T09:16:00.581Z,1.30
2022-09-09T09:18:28.035Z,1.13
2022-09-09T09:21:11.595Z,1.00
2022-09-09T09:23:44.732Z,1.03
2022-09-09T09:26:13.996Z,1.20
2022-09-09T09:28:41.448Z,1.13
2022-09-09T09:31:14.966Z,1.10
2022-09-09T09:33:53.841Z,1.17
2022-09-09T09:36:25.294Z,1.03
2022-09-09T09:41:48.419Z,1.30
2022-09-09T09:44:21.952Z,1.27
2022-09-09T09:46:48.719Z,1.00
2022-09-09T09:49:16.992Z,1.20
2022-09-09T09:51:44.405Z,1.23
2022-09-09T09:54:14.491Z,0.90
2022-09-09T09:56:43.774Z,1.13
2022-09-09T09:59:39.209Z,1.03
2022-09-09T10:02:14.317Z,0.97
2022-09-09T10:04:42.356Z,1.10
2022-09-09T10:07:27.344Z,1.23
2022-09-09T10:09:55.101Z,1.00
2022-09-09T10:12:40.669Z,1.10
2022-09-09T10:15:07.363Z,1.13
2022-09-09T10:17:41.787Z,1.07
2022-09-09T10:20:11.510Z,1.00
2022-09-09T10:22:40.450Z,1.37
2022-09-09T10:25:22.360Z,1.10
2022-09-09T10:28:08.157Z,1.23
2022-09-09T10:30:34.744Z,1.03
2022-09-09T10:33:11.683Z,1.20
2022-09-09T10:35:50.286Z,0.93
2022-09-09T10:38:34.858Z,1.20
2022-09-09T10:41:16.453Z,1.30
2022-09-09T10:43:45.988Z,1.30
2022-09-09T10:46:21.755Z,1.30
2022-09-09T10:49:05.166Z,1.07
2022-09-09T10:51:42.458Z,1.43
2022-09-09T10:54:09.150Z,1.70
2022-09-09T10:56:35.884Z,1.40
2022-09-09T10:59:13.376Z,1.33
2022-09-09T11:01:45.836Z,1.33
2022-09-09T11:04:21.744Z,1.77
2022-09-09T11:06:52.381Z,1.50
2022-09-09T11:09:22.372Z,1.37
2022-09-09T11:11:51.805Z,1.40
2022-09-09T11:14:32.841Z,1.20
2022-09-09T11:17:04.965Z,1.20
2022-09-09T11:19:35.467Z,1.20
2022-09-09T11:22:05.100Z,1.10
2022-09-09T11:24:58.321Z,1.30
2022-09-09T11:27:27.331Z,1.00
2022-09-09T11:29:54.867Z,1.30
2022-09-09T11:32:31.418Z,1.00
2022-09-09T11:35:07.960Z,1.20
2022-09-09T11:37:43.916Z,1.40
2022-09-09T11:40:16.590Z,1.50
2022-09-09T11:42:43.275Z,1.27
2022-09-09T11:45:12.182Z,1.27
2022-09-09T11:47:38.854Z,1.30
2022-09-09T11:50:09.900Z,1.73
2022-09-09T11:52:38.173Z,1.27
2022-09-09T11:55:32.059Z,1.17
2022-09-09T11:58:02.397Z,1.03
2022-09-09T12:00:39.639Z,0.80
2022-09-09T12:03:06.739Z,1.10
2022-09-09T12:05:38.540Z,1.07
2022-09-09T12:08:05.451Z,1.00
2022-09-09T12:10:33.926Z,0.87
2022-09-09T12:13:20.832Z,1.07
2022-09-09T12:15:48.562Z,1.10
2022-09-09T12:18:35.046Z,1.33
2022-09-09T12:21:13.310Z,1.10
2022-09-09T12:23:55.101Z,1.30
2022-09-09T12:26:40.603Z,1.20
2022-09-09T12:29:15.048Z,1.10
2022-09-09T12:31:52.631Z,0.80
2022-09-09T12:34:26.398Z,1.00
2022-09-09T12:36:59.122Z,1.20
2022-09-09T12:39:36.943Z,1.10
2022-09-09T12:42:05.019Z,1.20
2022-09-09T12:44:33.373Z,1.40
2022-09-09T12:47:02.338Z,1.23
2022-09-09T12:49:32.111Z,1.23
2022-09-09T12:51:58.724Z,1.60
2022-09-09T12:54:25.367Z,1.47
2022-09-09T12:56:52.309Z,1.97
2022-09-09T12:59:26.730Z,1.50
2022-09-09T13:01:56.889Z,1.60
2022-09-09T13:04:23.551Z,1.60
2022-09-09T13:06:50.379Z,1.60
2022-09-09T13:12:05.776Z,1.50
2022-09-09T13:14:35.775Z,1.40
2022-09-09T13:17:04.539Z,1.40
2022-09-09T13:19:33.696Z,1.20
2022-09-09T13:22:00.299Z,1.50
2022-09-09T13:24:30.271Z,1.40
2022-09-09T13:27:02.975Z,1.10
2022-09-09T13:29:30.577Z,1.20
2022-09-09T13:32:07.470Z,1.23
2022-09-09T13:34:35.461Z,1.37
2022-09-09T13:37:06.925Z,1.20
2022-09-09T13:39:37.652Z,1.10
2022-09-09T13:42:04.795Z,1.20
2022-09-09T13:44:42.673Z,1.30
2022-09-09T13:47:15.266Z,1.20
2022-09-09T13:49:42.256Z,1.00
2022-09-09T13:52:08.820Z,1.13
2022-09-09T13:54:36.026Z,1.20
2022-09-09T13:57:02.709Z,1.27
2022-09-09T13:59:53.969Z,1.30
2022-09-09T14:02:17.501Z,1.50
2022-09-09T14:04:44.505Z,1.63
2022-09-09T14:07:14.734Z,1.27
2022-09-09T14:09:41.437Z,1.43
2022-09-09T14:12:12.012Z,1.37
2022-09-09T14:14:38.752Z,1.70
2022-09-09T14:17:07.995Z,1.60
2022-09-09T14:19:34.852Z,1.40
2022-09-09T14:22:02.185Z,1.50
2022-09-09T14:24:31.962Z,1.50
2022-09-09T14:26:58.495Z,1.30
2022-09-09T14:29:26.433Z,1.37
2022-09-09T14:31:53.217Z,1.40
2022-09-09T14:34:19.775Z,1.23
2022-09-09T14:36:46.796Z,1.60
2022-09-09T14:39:13.358Z,1.30
2022-09-09T14:41:40.011Z,1.40
2022-09-09T14:44:06.572Z,1.60
2022-09-09T14:46:34.288Z,1.97
2022-09-09T14:49:01.003Z,1.60
2022-09-09T14:51:29.183Z,1.20
2022-09-09T14:53:56.814Z,1.30
2022-09-09T14:56:25.100Z,1.17
2022-09-09T14:58:52.142Z,1.30
2022-09-09T15:01:19.503Z,1.20
2022-09-09T15:03:50.741Z,1.30
2022-09-09T15:06:17.298Z,1.00
2022-09-09T15:08:45.089Z,1.10
2022-09-09T15:11:12.389Z,1.20
2022-09-09T15:13:40.027Z,1.00
2022-09-09T15:16:17.102Z,1.07
2022-09-09T15:18:45.845Z,1.10
2022-09-09T15:21:22.636Z,1.30
2022-09-09T15:23:49.497Z,1.50
2022-09-09T15:26:16.412Z,1.53
2022-09-09T15:28:44.615Z,1.60
2022-09-09T15:31:15.520Z,1.70
2022-09-09T15:33:42.182Z,1.70
2022-09-09T15:36:15.640Z,1.53
2022-09-09T15:38:42.407Z,1.60
2022-09-09T15:41:08.942Z,1.77
2022-09-09T15:43:35.719Z,1.60
2022-09-09T15:46:10.257Z,1.57
2022-09-09T15:51:41.593Z,1.37
2022-09-09T15:54:09.577Z,1.50
2022-09-09T15:56:36.153Z,1.53
2022-09-09T15:59:04.042Z,1.43
2022-09-09T16:01:32.142Z,1.40
2022-09-09T16:03:59.892Z,1.30
2022-09-09T16:06:29.275Z,1.20
2022-09-09T16:08:56.916Z,1.63
2022-09-09T16:11:24.943Z,1.40
2022-09-09T16:13:52.571Z,2.10
2022-09-09T16:16:25.950Z,2.00
2022-09-09T16:18:54.097Z,2.47
2022-09-09T16:21:25.396Z,1.87
2022-09-09T16:23:52.727Z,1.10
2022-09-09T16:26:19.375Z,1.00
2022-09-09T16:28:47.462Z,1.20
2022-09-09T16:31:15.378Z,1.67
2022-09-09T16:33:42.707Z,1.33
2022-09-09T16:36:13.519Z,1.70
2022-09-09T16:38:40.094Z,1.63
2022-09-09T16:41:07.385Z,1.33
2022-09-09T16:43:34.626Z,1.33
2022-09-09T16:46:01.526Z,1.20
2022-09-09T16:48:31.692Z,1.30
2022-09-09T16:51:08.244Z,1.60
2022-09-09T16:53:35.227Z,1.70
2022-09-09T16:56:08.185Z,1.80
2022-09-09T16:58:34.759Z,1.60
2022-09-09T17:01:03.274Z,1.70
2022-09-09T17:03:30.409Z,1.83
2022-09-09T17:05:58.769Z,1.67
2022-09-09T17:08:25.571Z,1.60
2022-09-09T17:10:52.225Z,1.67
2022-09-09T17:13:20.676Z,1.50
2022-09-09T17:15:47.299Z,1.50
2022-09-09T17:18:14.144Z,1.40
2022-09-09T17:20:46.924Z,1.70
2022-09-09T17:23:16.370Z,1.83
2022-09-09T17:25:42.986Z,1.80
2022-09-09T17:28:09.600Z,1.80
2022-09-09T17:30:37.555Z,10.13
2022-09-09T17:33:04.643Z,32.07
2022-09-09T17:35:31.871Z,29.13
2022-09-09T17:37:59.062Z,3.00
2022-09-09T17:40:25.656Z,10.00
2022-09-09T17:42:52.271Z,14.47
2022-09-09T17:45:19.023Z,8.43
2022-09-09T17:47:45.669Z,3.57
2022-09-09T17:50:13.768Z,1.77
2022-09-09T17:52:41.648Z,3.77
2022-09-09T17:55:10.193Z,3.50
2022-09-09T17:57:36.780Z,4.67
2022-09-09T18:00:05.330Z,2.20
2022-09-09T18:02:39.084Z,3.43
2022-09-09T18:05:05.997Z,2.33
2022-09-09T18:07:32.548Z,4.43
2022-09-09T18:09:59.193Z,3.23
2022-09-09T18:12:25.816Z,2.60
2022-09-09T18:14:52.474Z,2.90
2022-09-09T18:17:19.145Z,4.97
2022-09-09T18:19:46.793Z,2.90
2022-09-09T18:22:13.549Z,3.93
2022-09-09T18:24:41.436Z,3.30
2022-09-09T18:27:07.999Z,3.17
2022-09-09T18:29:35.041Z,3.53
2022-09-09T18:32:01.766Z,2.73
2022-09-09T18:34:30.216Z,2.87
2022-09-09T18:36:57.317Z,2.53
2022-09-09T18:39:25.380Z,3.00
2022-09-09T18:41:53.073Z,2.40
2022-09-09T18:44:20.931Z,3.00
2022-09-09T18:46:48.134Z,2.17
2022-09-09T18:49:15.380Z,1.83
2022-09-09T18:51:43.261Z,2.00
2022-09-09T18:54:14.191Z,1.80
2022-09-09T18:56:41.406Z,2.40
2022-09-09T18:59:08.995Z,2.40
2022-09-09T19:01:38.979Z,2.50
2022-09-09T19:04:06.764Z,2.13
2022-09-09T19:06:34.320Z,1.90
2022-09-09T19:09:03.517Z,1.83
2022-09-09T19:11:31.680Z,2.30
2022-09-09T19:13:59.733Z,2.00
2022-09-09T19:16:29.322Z,2.23
2022-09-09T19:18:58.030Z,2.30
2022-09-09T19:21:26.193Z,2.07
2022-09-09T19:24:00.766Z,2.37
2022-09-09T19:26:32.189Z,2.13
2022-09-09T19:28:59.495Z,2.17
2022-09-09T19:31:28.018Z,1.83
2022-09-09T19:33:58.267Z,2.27
2022-09-09T19:36:25.623Z,1.80
2022-09-09T19:38:54.092Z,2.47
2022-09-09T19:41:23.319Z,1.77
2022-09-09T19:43:50.693Z,1.97
2022-09-09T19:46:18.463Z,1.83
2022-09-09T19:48:45.868Z,2.30
2022-09-09T19:51:14.380Z,1.90
2022-09-09T19:54:03.001Z,2.23
2022-09-09T19:56:30.628Z,1.60
2022-09-09T19:58:57.532Z,2.10
2022-09-09T20:01:25.399Z,2.07
2022-09-09T20:03:54.086Z,1.93
2022-09-09T20:06:23.768Z,2.53
2022-09-09T20:08:51.081Z,2.40
2022-09-09T20:11:18.014Z,2.50
2022-09-09T20:13:44.606Z,2.40
2022-09-09T20:16:13.174Z,2.40
2022-09-09T20:18:41.250Z,2.60
2022-09-09T20:21:11.884Z,3.57
2022-09-09T20:23:39.645Z,3.40
2022-09-09T20:26:07.534Z,2.87
2022-09-09T20:28:38.579Z,2.27
2022-09-09T20:31:05.447Z,1.90
2022-09-09T20:33:32.312Z,2.17
2022-09-09T20:36:05.148Z,2.13
2022-09-09T20:38:34.014Z,1.70
2022-09-09T20:41:04.197Z,1.50
2022-09-09T20:43:30.739Z,2.07
2022-09-09T20:46:01.294Z,1.77
2022-09-09T20:48:28.105Z,1.87
2022-09-09T20:50:55.551Z,1.90
2022-09-09T20:53:23.086Z,1.83
2022-09-09T20:55:50.871Z,2.20
2022-09-09T20:58:17.668Z,1.77
2022-09-09T21:00:44.230Z,2.20
2022-09-09T21:03:10.822Z,2.00
2022-09-09T21:05:39.107Z,1.90
2022-09-09T21:08:05.958Z,1.80
2022-09-09T21:10:32.575Z,1.80
2022-09-09T21:13:01.469Z,1.40
2022-09-09T21:15:28.253Z,1.90
2022-09-09T21:17:54.791Z,2.30
2022-09-09T21:20:21.667Z,1.60
2022-09-09T21:22:48.214Z,1.80
2022-09-09T21:25:15.238Z,1.80
2022-09-09T21:27:41.784Z,1.90
2022-09-09T21:30:08.668Z,2.23
2022-09-09T21:32:35.484Z,1.57
2022-09-09T21:35:02.113Z,1.50
2022-09-09T21:37:28.667Z,1.67
2022-09-09T21:39:55.278Z,1.70
2022-09-09T21:42:21.837Z,1.70
2022-09-09T21:44:48.466Z,2.00
2022-09-09T21:47:16.163Z,1.93
2022-09-09T21:49:42.975Z,1.63
2022-09-09T21:52:09.542Z,2.00
2022-09-09T21:54:40.243Z,2.03
2022-09-09T21:57:06.833Z,2.00
2022-09-09T21:59:33.951Z,1.80
2022-09-09T22:02:00.643Z,1.87
2022-09-09T22:04:27.387Z,1.70
2022-09-09T22:06:53.983Z,1.90
2022-09-09T22:09:20.536Z,1.67
2022-09-09T22:11:47.307Z,2.00
2022-09-09T22:14:13.997Z,1.80
2022-09-09T22:16:40.721Z,1.90
2022-09-09T22:19:07.689Z,1.20
2022-09-09T22:21:34.281Z,1.00
2022-09-09T22:24:01.847Z,1.00
2022-09-09T22:26:30.051Z,1.00
2022-09-09T22:28:57.387Z,1.07
2022-09-09T22:31:24.821Z,0.97
2022-09-09T22:33:54.664Z,1.40
2022-09-09T22:36:21.637Z,1.10
2022-09-09T22:38:49.049Z,1.10
2022-09-09T22:41:17.089Z,1.27
2022-09-09T22:43:43.904Z,1.27
2022-09-09T22:46:10.479Z,1.20
2022-09-09T22:48:37.972Z,1.20
2022-09-09T22:51:05.366Z,1.30
2022-09-09T22:53:33.209Z,1.40
2022-09-09T22:56:02.048Z,1.20
2022-09-09T22:58:30.043Z,1.17
2022-09-09T23:00:58.803Z,1.13
2022-09-09T23:03:26.169Z,1.20
2022-09-09T23:05:53.588Z,1.43
2022-09-09T23:08:20.121Z,1.23
2022-09-09T23:10:46.697Z,1.20
2022-09-09T23:13:13.239Z,1.10
2022-09-09T23:15:42.783Z,1.20
2022-09-09T23:18:09.373Z,1.20
2022-09-09T23:20:36.599Z,1.20
2022-09-09T23:23:03.179Z,1.40
2022-09-09T23:25:29.783Z,1.33
2022-09-09T23:27:56.345Z,1.30
2022-09-09T23:30:22.942Z,1.10
2022-09-09T23:32:49.584Z,1.10
2022-09-09T23:35:16.307Z,1.27
2022-09-09T23:37:42.841Z,1.30
2022-09-09T23:40:09.803Z,1.40
2022-09-09T23:42:36.416Z,1.20
2022-09-09T23:45:03.020Z,1.47
2022-09-09T23:47:29.561Z,1.40
2022-09-09T23:49:56.111Z,1.43
2022-09-09T23:52:24.402Z,1.53
2022-09-09T23:54:50.989Z,1.50
2022-09-09T23:57:17.557Z,1.23
2022-09-09T23:59:44.267Z,1.77
